Time,TemperatureF,DewpointF,PressureIn,WindDirection,WindDirectionDegrees,WindSpeedMPH,WindSpeedGustMPH,Humidity,HourlyPrecipIn,Conditions,Clouds,dailyrainin,SolarRadiationWatts/m^2,SoftwareType,DateUTC
2013-01-28 00:02:00,12.0,9.0,-100.00,ENE,64,1.0,3.0,89,0.00,,,0.00,0.000000,,2013-01-28 07:02:00,
2013-01-28 00:11:00,12.0,9.0,-100.00,ENE,64,1.0,3.0,89,0.00,,,0.00,0.000000,,2013-01-28 07:11:00,
2013-01-28 00:21:00,12.0,9.0,-100.00,ENE,64,1.0,3.0,89,0.00,,,0.00,0.000000,,2013-01-28 07:21:00,
2013-01-28 00:31:00,12.0,9.0,-100.00,ENE,64,1.0,3.0,89,0.00,,,0.00,0.000000,,2013-01-28 07:31:00,
2013-01-28 00:40:00,12.0,9.0,-100.00,NNE,19,0.0,4.0,89,0.00,,,0.00,0.000000,,2013-01-28 07:40:00,
2013-01-28 01:01:00,12.0,9.0,-100.00,NNE,19,0.0,4.0,89,0.00,,,0.00,0.000000,,2013-01-28 08:01:00,
2013-01-28 01:11:00,12.0,9.0,-100.00,NNE,19,0.0,4.0,89,0.00,,,0.00,0.000000,,2013-01-28 08:11:00,
2013-01-28 01:21:00,12.0,9.0,-100.00,NNE,19,0.0,4.0,89,0.00,,,0.00,0.000000,,2013-01-28 08:21:00,
2013-01-28 01:31:00,12.0,9.0,-100.00,NNE,19,0.0,4.0,89,0.00,,,0.00,0.000000,,2013-01-28 08:31:00,
2013-01-28 01:40:00,12.0,9.0,-100.00,WNW,289,0.0,2.0,89,0.00,,,0.00,0.000000,,2013-01-28 08:40:00,
2013-01-28 02:02:00,12.0,9.0,-100.00,WNW,289,0.0,2.0,89,0.00,,,0.00,0.000000,,2013-01-28 09:02:00,
2013-01-28 02:11:00,12.0,9.0,-100.00,WNW,289,0.0,2.0,89,0.00,,,0.00,0.000000,,2013-01-28 09:11:00,
2013-01-28 02:21:00,12.0,9.0,-100.00,WNW,289,0.0,2.0,89,0.00,,,0.00,0.000000,,2013-01-28 09:21:00,
2013-01-28 02:32:00,12.0,9.0,-100.00,WNW,289,0.0,2.0,89,0.00,,,0.00,0.000000,,2013-01-28 09:32:00,
2013-01-28 02:40:00,12.0,9.0,-100.00,NNW,345,0.0,1.0,89,0.00,,,0.00,0.000000,,2013-01-28 09:40:00,
2013-01-28 03:02:00,12.0,9.0,-100.00,NNW,345,0.0,1.0,89,0.00,,,0.00,0.000000,,2013-01-28 10:02:00,
2013-01-28 03:11:00,12.0,9.0,-100.00,NNW,345,0.0,1.0,89,0.00,,,0.00,0.000000,,2013-01-28 10:11:00,
2013-01-28 03:21:00,12.0,9.0,-100.00,NNW,345,0.0,1.0,89,0.00,,,0.00,0.000000,,2013-01-28 10:21:00,
2013-01-28 03:31:00,12.0,9.0,-100.00,NNW,345,0.0,1.0,89,0.00,,,0.00,0.000000,,2013-01-28 10:31:00,
2013-01-28 03:40:00,12.0,9.0,-100.00,NNW,347,1.0,4.0,89,0.00,,,0.00,0.000000,,2013-01-28 10:40:00,
2013-01-28 04:02:00,12.0,9.0,-100.00,NNW,347,1.0,4.0,89,0.00,,,0.00,0.000000,,2013-01-28 11:02:00,
2013-01-28 04:11:00,12.0,9.0,-100.00,NNW,347,1.0,4.0,89,0.00,,,0.00,0.000000,,2013-01-28 11:11:00,
2013-01-28 04:22:00,12.0,9.0,-100.00,NNW,347,1.0,4.0,89,0.00,,,0.00,0.000000,,2013-01-28 11:22:00,
2013-01-28 04:32:00,12.0,9.0,-100.00,NNW,347,1.0,4.0,89,0.00,,,0.00,0.000000,,2013-01-28 11:32:00,
2013-01-28 04:40:00,11.0,8.0,-100.00,North,350,0.0,4.0,89,0.00,,,0.00,0.000000,,2013-01-28 11:40:00,
2013-01-28 05:11:00,11.0,8.0,-100.00,North,350,0.0,4.0,89,0.00,,,0.00,0.000000,,2013-01-28 12:11:00,
2013-01-28 05:23:00,11.0,8.0,-100.00,North,350,0.0,4.0,89,0.00,,,0.00,0.000000,,2013-01-28 12:23:00,
2013-01-28 05:32:00,11.0,8.0,-100.00,North,350,0.0,4.0,89,0.00,,,0.00,0.000000,,2013-01-28 12:32:00,
2013-01-28 05:40:00,11.0,8.0,-100.00,NNW,343,0.0,3.0,88,0.00,,,0.00,0.000000,,2013-01-28 12:40:00,
2013-01-28 06:02:00,11.0,8.0,-100.00,NNW,343,0.0,3.0,88,0.00,,,0.00,0.000000,,2013-01-28 13:02:00,
2013-01-28 06:12:00,11.0,8.0,-100.00,NNW,343,0.0,3.0,88,0.00,,,0.00,0.000000,,2013-01-28 13:12:00,
2013-01-28 06:22:00,11.0,8.0,-100.00,NNW,343,0.0,3.0,88,0.00,,,0.00,0.000000,,2013-01-28 13:22:00,
2013-01-28 06:32:00,11.0,8.0,-100.00,NNW,343,0.0,3.0,88,0.00,,,0.00,0.000000,,2013-01-28 13:32:00,
2013-01-28 06:40:00,9.0,6.0,-100.00,SE,124,0.0,1.0,87,0.00,,,0.00,0.000000,,2013-01-28 13:40:00,
2013-01-28 07:02:00,9.0,6.0,-100.00,SE,124,0.0,1.0,87,0.00,,,0.00,0.000000,,2013-01-28 14:02:00,
2013-01-28 07:12:00,9.0,6.0,-100.00,SE,124,0.0,1.0,87,0.00,,,0.00,0.000000,,2013-01-28 14:12:00,
2013-01-28 07:22:00,9.0,6.0,-100.00,SE,124,0.0,1.0,87,0.00,,,0.00,0.000000,,2013-01-28 14:22:00,
2013-01-28 07:32:00,9.0,6.0,-100.00,SE,124,0.0,1.0,87,0.00,,,0.00,0.000000,,2013-01-28 14:32:00,
2013-01-28 07:40:00,6.0,3.0,-100.00,WSW,241,2.0,4.0,87,0.00,,,0.00,0.000000,,2013-01-28 14:40:00,
2013-01-28 08:03:00,6.0,3.0,-100.00,WSW,241,2.0,4.0,87,0.00,,,0.00,0.000000,,2013-01-28 15:03:00,
2013-01-28 08:12:00,6.0,3.0,-100.00,WSW,241,2.0,4.0,87,0.00,,,0.00,0.000000,,2013-01-28 15:12:00,
2013-01-28 08:23:00,6.0,3.0,-100.00,WSW,241,2.0,4.0,87,0.00,,,0.00,0.000000,,2013-01-28 15:23:00,
2013-01-28 08:33:00,6.0,3.0,-100.00,WSW,241,2.0,4.0,87,0.00,,,0.00,0.000000,,2013-01-28 15:33:00,
2013-01-28 08:40:00,11.0,8.0,-100.00,WNW,290,0.0,6.0,89,0.00,,,0.00,6.000000,,2013-01-28 15:40:00,
2013-01-28 09:03:00,11.0,8.0,-100.00,WNW,290,0.0,6.0,89,0.00,,,0.00,6.000000,,2013-01-28 16:03:00,
2013-01-28 09:12:00,11.0,8.0,-100.00,WNW,290,0.0,6.0,89,0.00,,,0.00,6.000000,,2013-01-28 16:12:00,
2013-01-28 09:22:00,11.0,8.0,-100.00,WNW,290,0.0,6.0,89,0.00,,,0.00,6.000000,,2013-01-28 16:22:00,
2013-01-28 09:32:00,11.0,8.0,-100.00,WNW,290,0.0,6.0,89,0.00,,,0.00,6.000000,,2013-01-28 16:32:00,
2013-01-28 09:40:00,14.0,12.0,-100.00,NNW,347,0.0,2.0,90,0.00,,,0.00,17.000000,,2013-01-28 16:40:00,
2013-01-28 10:01:00,14.0,12.0,-100.00,NNW,347,0.0,2.0,90,0.00,,,0.00,17.000000,,2013-01-28 17:01:00,
2013-01-28 10:11:00,14.0,12.0,-100.00,NNW,347,0.0,2.0,90,0.00,,,0.00,17.000000,,2013-01-28 17:11:00,
2013-01-28 10:22:00,14.0,12.0,-100.00,NNW,347,0.0,2.0,90,0.00,,,0.00,17.000000,,2013-01-28 17:22:00,
2013-01-28 10:32:00,14.0,12.0,-100.00,NNW,347,0.0,2.0,90,0.00,,,0.00,17.000000,,2013-01-28 17:32:00,
2013-01-28 10:40:00,18.0,15.0,-100.00,East,85,0.0,2.0,88,0.00,,,0.00,46.000000,,2013-01-28 17:40:00,
2013-01-28 11:02:00,18.0,15.0,-100.00,East,85,0.0,2.0,88,0.00,,,0.00,46.000000,,2013-01-28 18:02:00,
2013-01-28 11:12:00,18.0,15.0,-100.00,East,85,0.0,2.0,88,0.00,,,0.00,46.000000,,2013-01-28 18:12:00,
2013-01-28 11:23:00,18.0,15.0,-100.00,East,85,0.0,2.0,88,0.00,,,0.00,46.000000,,2013-01-28 18:23:00,
2013-01-28 11:33:00,18.0,15.0,-100.00,East,85,0.0,2.0,88,0.00,,,0.00,46.000000,,2013-01-28 18:33:00,
2013-01-28 11:40:00,18.0,13.0,-100.00,NE,50,2.0,5.0,80,0.00,,,0.00,43.000000,,2013-01-28 18:40:00,
2013-01-28 12:02:00,18.0,13.0,-100.00,NE,50,2.0,5.0,80,0.00,,,0.00,43.000000,,2013-01-28 19:02:00,
2013-01-28 12:12:00,18.0,13.0,-100.00,NE,50,2.0,5.0,80,0.00,,,0.00,43.000000,,2013-01-28 19:12:00,
2013-01-28 12:22:00,18.0,13.0,-100.00,NE,50,2.0,5.0,80,0.00,,,0.00,43.000000,,2013-01-28 19:22:00,
2013-01-28 12:32:00,18.0,13.0,-100.00,NE,50,2.0,5.0,80,0.00,,,0.00,43.000000,,2013-01-28 19:32:00,
2013-01-28 12:40:00,19.0,13.0,-100.00,NNW,335,1.0,6.0,77,0.00,,,0.00,33.000000,,2013-01-28 19:40:00,
2013-01-28 13:02:00,19.0,13.0,-100.00,NNW,335,1.0,6.0,77,0.00,,,0.00,33.000000,,2013-01-28 20:02:00,
2013-01-28 13:11:00,19.0,13.0,-100.00,NNW,335,1.0,6.0,77,0.00,,,0.00,33.000000,,2013-01-28 20:11:00,
2013-01-28 13:21:00,19.0,13.0,-100.00,NNW,335,1.0,6.0,77,0.00,,,0.00,33.000000,,2013-01-28 20:21:00,
2013-01-28 13:33:00,19.0,13.0,-100.00,NNW,335,1.0,6.0,77,0.00,,,0.00,33.000000,,2013-01-28 20:33:00,
2013-01-28 13:40:00,19.0,11.0,-100.00,West,265,2.0,7.0,70,0.00,,,0.00,42.000000,,2013-01-28 20:40:00,
2013-01-28 14:03:00,19.0,11.0,-100.00,West,265,2.0,7.0,70,0.00,,,0.00,42.000000,,2013-01-28 21:03:00,
2013-01-28 14:11:00,19.0,11.0,-100.00,West,265,2.0,7.0,70,0.00,,,0.00,42.000000,,2013-01-28 21:11:00,
2013-01-28 14:22:00,19.0,11.0,-100.00,West,265,2.0,7.0,70,0.00,,,0.00,42.000000,,2013-01-28 21:22:00,
2013-01-28 14:33:00,19.0,11.0,-100.00,West,265,2.0,7.0,70,0.00,,,0.00,42.000000,,2013-01-28 21:33:00,
2013-01-28 14:40:00,20.0,10.0,-100.00,SW,229,2.0,10.0,65,0.00,,,0.00,80.000000,,2013-01-28 21:40:00,
2013-01-28 15:01:00,20.0,10.0,-100.00,SW,229,2.0,10.0,65,0.00,,,0.00,80.000000,,2013-01-28 22:01:00,
2013-01-28 15:11:00,20.0,10.0,-100.00,SW,229,2.0,10.0,65,0.00,,,0.00,80.000000,,2013-01-28 22:11:00,
2013-01-28 15:22:00,20.0,10.0,-100.00,SW,229,2.0,10.0,65,0.00,,,0.00,80.000000,,2013-01-28 22:22:00,
2013-01-28 15:32:00,20.0,10.0,-100.00,SW,229,2.0,10.0,65,0.00,,,0.00,80.000000,,2013-01-28 22:32:00,
2013-01-28 16:02:00,21.0,11.0,-100.00,South,170,3.0,12.0,65,0.00,,,0.00,111.000000,,2013-01-28 23:02:00,
2013-01-28 16:11:00,21.0,11.0,-100.00,South,170,3.0,12.0,65,0.00,,,0.00,111.000000,,2013-01-28 23:11:00,
2013-01-28 16:22:00,21.0,11.0,-100.00,South,170,3.0,12.0,65,0.00,,,0.00,111.000000,,2013-01-28 23:22:00,
2013-01-28 16:32:00,21.0,11.0,-100.00,South,170,3.0,12.0,65,0.00,,,0.00,111.000000,,2013-01-28 23:32:00,
2013-01-28 16:40:00,13.0,7.0,-100.00,WSW,251,2.0,9.0,78,-99.99,,,0.00,31.000000,,2013-01-28 23:40:00,
2013-01-28 17:02:00,13.0,7.0,-100.00,WSW,251,2.0,9.0,78,-99.99,,,0.00,31.000000,,2013-01-29 00:02:00,
2013-01-28 17:12:00,13.0,7.0,-100.00,WSW,251,2.0,9.0,78,-99.99,,,0.00,31.000000,,2013-01-29 00:12:00,
2013-01-28 17:22:00,13.0,7.0,-100.00,WSW,251,2.0,9.0,78,-99.99,,,0.00,31.000000,,2013-01-29 00:22:00,
2013-01-28 17:32:00,13.0,7.0,-100.00,WSW,251,2.0,9.0,78,-99.99,,,0.00,31.000000,,2013-01-29 00:32:00,
2013-01-28 17:40:00,10.0,6.0,-100.00,SW,221,7.0,11.0,83,0.00,,,0.00,2.000000,,2013-01-29 00:40:00,
2013-01-28 18:02:00,10.0,6.0,-100.00,SW,221,7.0,11.0,83,0.00,,,0.00,2.000000,,2013-01-29 01:02:00,
2013-01-28 18:11:00,10.0,6.0,-100.00,SW,221,7.0,11.0,83,0.00,,,0.00,2.000000,,2013-01-29 01:11:00,
2013-01-28 18:22:00,10.0,6.0,-100.00,SW,221,7.0,11.0,83,0.00,,,0.00,2.000000,,2013-01-29 01:22:00,
2013-01-28 18:32:00,10.0,6.0,-100.00,SW,221,7.0,11.0,83,0.00,,,0.00,2.000000,,2013-01-29 01:32:00,
2013-01-28 18:40:00,9.0,5.0,-100.00,SW,226,10.0,17.0,82,0.00,,,0.00,0.000000,,2013-01-29 01:40:00,
2013-01-28 19:02:00,9.0,5.0,-100.00,SW,226,10.0,17.0,82,0.00,,,0.00,0.000000,,2013-01-29 02:02:00,
2013-01-28 19:11:00,9.0,5.0,-100.00,SW,226,10.0,17.0,82,0.00,,,0.00,0.000000,,2013-01-29 02:11:00,
2013-01-28 19:21:00,9.0,5.0,-100.00,SW,226,10.0,17.0,82,0.00,,,0.00,0.000000,,2013-01-29 02:21:00,
2013-01-28 19:32:00,9.0,5.0,-100.00,SW,226,10.0,17.0,82,0.00,,,0.00,0.000000,,2013-01-29 02:32:00,
2013-01-28 19:40:00,8.0,3.0,-100.00,SW,227,17.0,24.0,81,0.00,,,0.00,0.000000,,2013-01-29 02:40:00,
2013-01-28 20:03:00,8.0,3.0,-100.00,SW,227,17.0,24.0,81,0.00,,,0.00,0.000000,,2013-01-29 03:03:00,
2013-01-28 20:11:00,8.0,3.0,-100.00,SW,227,17.0,24.0,81,0.00,,,0.00,0.000000,,2013-01-29 03:11:00,
2013-01-28 20:21:00,8.0,3.0,-100.00,SW,227,17.0,24.0,81,0.00,,,0.00,0.000000,,2013-01-29 03:21:00,
2013-01-28 20:31:00,8.0,3.0,-100.00,SW,227,17.0,24.0,81,0.00,,,0.00,0.000000,,2013-01-29 03:31:00,
2013-01-28 20:40:00,7.0,0.0,-100.00,WSW,240,16.0,26.0,74,0.00,,,0.00,0.000000,,2013-01-29 03:40:00,
2013-01-28 21:02:00,7.0,0.0,-100.00,WSW,240,16.0,26.0,74,0.00,,,0.00,0.000000,,2013-01-29 04:02:00,
2013-01-28 21:11:00,7.0,0.0,-100.00,WSW,240,16.0,26.0,74,0.00,,,0.00,0.000000,,2013-01-29 04:11:00,
2013-01-28 21:21:00,7.0,0.0,-100.00,WSW,240,16.0,26.0,74,0.00,,,0.00,0.000000,,2013-01-29 04:21:00,
2013-01-28 21:32:00,7.0,0.0,-100.00,WSW,240,16.0,26.0,74,0.00,,,0.00,0.000000,,2013-01-29 04:32:00,
2013-01-28 21:40:00,7.0,1.0,-100.00,SW,227,15.0,24.0,75,0.00,,,0.00,0.000000,,2013-01-29 04:40:00,
2013-01-28 22:03:00,7.0,1.0,-100.00,SW,227,15.0,24.0,75,0.00,,,0.00,0.000000,,2013-01-29 05:03:00,
2013-01-28 22:12:00,7.0,1.0,-100.00,SW,227,15.0,24.0,75,0.00,,,0.00,0.000000,,2013-01-29 05:12:00,
2013-01-28 22:21:00,7.0,1.0,-100.00,SW,227,15.0,24.0,75,0.00,,,0.00,0.000000,,2013-01-29 05:21:00,
2013-01-28 22:32:00,7.0,1.0,-100.00,SW,227,15.0,24.0,75,0.00,,,0.00,0.000000,,2013-01-29 05:32:00,
2013-01-28 22:40:00,7.0,-1.0,-100.00,WSW,238,17.0,27.0,68,0.00,,,0.00,0.000000,,2013-01-29 05:40:00,
2013-01-28 23:01:00,7.0,-1.0,-100.00,WSW,238,17.0,27.0,68,0.00,,,0.00,0.000000,,2013-01-29 06:01:00,
2013-01-28 23:11:00,7.0,-1.0,-100.00,WSW,238,17.0,27.0,68,0.00,,,0.00,0.000000,,2013-01-29 06:11:00,
2013-01-28 23:21:00,7.0,-1.0,-100.00,WSW,238,17.0,27.0,68,0.00,,,0.00,0.000000,,2013-01-29 06:21:00,
2013-01-28 23:31:00,7.0,-1.0,-100.00,WSW,238,17.0,27.0,68,0.00,,,0.00,0.000000,,2013-01-29 06:31:00,
2013-01-28 23:40:00,7.0,-2.0,-100.00,WSW,250,15.0,27.0,66,0.00,,,0.00,0.000000,,2013-01-29 06:40:00,